createdAt,value
2022-11-23T05:01:17.197Z,2.45
2022-11-23T05:04:06.274Z,2.40
2022-11-23T05:06:35.199Z,2.42
2022-11-23T05:09:04.725Z,2.39
2022-11-23T05:11:56.726Z,2.41
2022-11-23T05:14:25.713Z,2.47
2022-11-23T05:16:55.092Z,2.45
2022-11-23T05:19:24.594Z,2.42
2022-11-23T05:21:54.695Z,2.45
2022-11-23T05:24:25.153Z,2.41
2022-11-23T05:27:06.570Z,2.38
2022-11-23T05:29:35.778Z,2.33
2022-11-23T05:32:07.046Z,2.30
2022-11-23T05:34:35.612Z,2.29
2022-11-23T05:37:05.960Z,2.28
2022-11-23T05:39:35.015Z,2.28
2022-11-23T05:42:04.296Z,2.28
2022-11-23T05:44:40.520Z,2.25
2022-11-23T05:47:14.031Z,2.27
2022-11-23T05:49:43.846Z,2.27
2022-11-23T05:52:13.249Z,2.26
2022-11-23T05:54:42.895Z,2.26
2022-11-23T05:57:16.784Z,2.28
2022-11-23T05:59:47.027Z,2.27
2022-11-23T06:02:20.147Z,2.27
2022-11-23T06:04:50.939Z,2.26
2022-11-23T06:07:25.811Z,2.24
2022-11-23T06:10:04.288Z,2.18
2022-11-23T06:12:35.092Z,2.16
2022-11-23T06:15:04.517Z,2.16
2022-11-23T06:17:34.151Z,2.20
2022-11-23T06:20:07.569Z,2.22
2022-11-23T06:26:44.536Z,2.24
2022-11-23T06:29:14.473Z,2.27
2022-11-23T06:31:43.457Z,2.30
2022-11-23T06:34:12.518Z,2.28
2022-11-23T06:36:41.940Z,2.27
2022-11-23T06:39:11.159Z,2.24
2022-11-23T06:41:40.647Z,2.25
2022-11-23T06:44:09.845Z,2.22
2022-11-23T06:46:44.461Z,2.21
2022-11-23T06:49:14.887Z,2.22
2022-11-23T06:51:47.849Z,2.22
2022-11-23T06:54:27.069Z,2.22
2022-11-23T06:56:57.803Z,2.21
2022-11-23T06:59:30.192Z,2.22
2022-11-23T07:01:59.975Z,2.19
2022-11-23T07:04:31.118Z,2.19
2022-11-23T07:07:00.187Z,2.18
2022-11-23T07:09:36.340Z,2.18
2022-11-23T07:12:35.415Z,2.19
2022-11-23T07:15:05.481Z,2.22
2022-11-23T07:17:40.790Z,2.19
2022-11-23T07:20:12.304Z,2.22
2022-11-23T07:22:42.181Z,2.25
2022-11-23T07:25:12.032Z,2.25
2022-11-23T07:27:41.251Z,2.23
2022-11-23T07:30:10.280Z,2.19
2022-11-23T07:32:39.336Z,2.15
2022-11-23T07:35:09.260Z,2.13
2022-11-23T07:37:40.631Z,2.09
2022-11-23T07:40:18.835Z,2.08
2022-11-23T07:42:56.094Z,2.08
2022-11-23T07:45:25.505Z,2.11
2022-11-23T07:48:00.457Z,2.12
2022-11-23T07:50:29.859Z,2.12
2022-11-23T07:53:04.025Z,2.14
2022-11-23T07:55:34.760Z,2.15
2022-11-23T07:58:06.141Z,2.18
2022-11-23T08:00:49.075Z,2.19
2022-11-23T08:03:29.731Z,2.19
2022-11-23T08:06:00.082Z,2.19
2022-11-23T08:08:29.372Z,2.14
2022-11-23T08:11:09.787Z,2.08
2022-11-23T08:13:38.237Z,2.06
2022-11-23T08:16:07.412Z,2.07
2022-11-23T08:18:36.460Z,2.08
2022-11-23T08:21:06.364Z,2.08
2022-11-23T08:23:36.813Z,2.06
2022-11-23T08:26:12.001Z,2.03
2022-11-23T08:28:43.793Z,2.05
2022-11-23T08:31:15.541Z,2.01
2022-11-23T08:33:45.293Z,2.00
2022-11-23T08:36:17.049Z,1.99
2022-11-23T08:38:53.394Z,2.00
2022-11-23T08:41:22.582Z,1.96
2022-11-23T08:43:51.937Z,1.92
2022-11-23T08:46:22.032Z,1.89
2022-11-23T08:48:52.882Z,1.90
2022-11-23T08:51:23.613Z,1.94
2022-11-23T08:53:52.409Z,1.98
2022-11-23T08:56:21.317Z,1.96
2022-11-23T08:58:50.883Z,1.99
2022-11-23T09:01:19.946Z,1.99
2022-11-23T09:04:05.351Z,2.03
2022-11-23T09:06:34.927Z,2.06
2022-11-23T09:09:04.514Z,2.04
2022-11-23T09:11:33.541Z,2.07
2022-11-23T09:14:02.937Z,2.05
2022-11-23T09:16:34.013Z,2.04
2022-11-23T09:19:04.000Z,2.02
2022-11-23T09:21:39.913Z,2.02
2022-11-23T09:24:14.173Z,2.04
2022-11-23T09:26:45.619Z,2.11
2022-11-23T09:29:42.907Z,2.17
2022-11-23T09:32:12.708Z,2.18
2022-11-23T09:34:44.767Z,2.14
2022-11-23T09:37:16.019Z,2.15
2022-11-23T09:39:45.714Z,2.18
2022-11-23T09:42:16.018Z,2.24
2022-11-23T09:44:56.644Z,2.24
2022-11-23T09:48:03.181Z,2.23
2022-11-23T09:50:56.824Z,2.18
2022-11-23T09:53:31.276Z,2.18
2022-11-23T09:56:00.311Z,2.15
2022-11-23T09:59:02.497Z,2.12
2022-11-23T10:01:31.847Z,2.10
2022-11-23T10:04:00.833Z,2.10
2022-11-23T10:06:34.951Z,2.07
2022-11-23T10:09:13.048Z,2.02
2022-11-23T10:11:42.436Z,2.01
2022-11-23T10:14:10.894Z,2.01
2022-11-23T10:16:39.746Z,2.03
2022-11-23T10:19:14.541Z,2.04
2022-11-23T10:21:45.933Z,2.03
2022-11-23T10:24:14.709Z,2.02
2022-11-23T10:26:45.532Z,2.05
2022-11-23T10:29:13.918Z,2.09
2022-11-23T10:31:46.513Z,2.08
2022-11-23T10:34:17.901Z,2.07
2022-11-23T10:36:47.253Z,2.06
2022-11-23T10:39:24.320Z,2.06
2022-11-23T10:41:54.923Z,2.09
2022-11-23T10:44:37.152Z,2.10
2022-11-23T10:47:06.367Z,2.11
2022-11-23T10:49:36.414Z,2.17
2022-11-23T10:52:06.449Z,2.21
2022-11-23T10:54:36.024Z,2.26
2022-11-23T10:57:21.682Z,2.32
2022-11-23T11:00:00.364Z,2.33
2022-11-23T11:02:28.985Z,2.37
2022-11-23T11:05:13.056Z,2.35
2022-11-23T11:07:41.854Z,2.34
2022-11-23T11:10:30.512Z,2.32
2022-11-23T11:12:59.216Z,2.28
2022-11-23T11:15:29.290Z,2.24
2022-11-23T11:17:59.723Z,2.21
2022-11-23T11:20:32.138Z,2.17
2022-11-23T11:23:03.249Z,2.15
2022-11-23T11:25:32.591Z,2.18
2022-11-23T11:28:03.091Z,2.23
2022-11-23T11:30:41.808Z,2.27
2022-11-23T11:33:43.822Z,2.20
2022-11-23T11:36:15.389Z,2.13
2022-11-23T11:39:07.740Z,2.13
2022-11-23T11:41:38.122Z,2.18
2022-11-23T11:44:14.556Z,2.17
2022-11-23T11:46:48.031Z,2.24
2022-11-23T11:49:25.931Z,2.22
2022-11-23T11:51:57.474Z,2.19
2022-11-23T11:54:29.250Z,2.20
2022-11-23T11:57:04.096Z,2.22
2022-11-23T11:59:43.101Z,2.21
2022-11-23T12:02:29.478Z,2.16
2022-11-23T12:04:59.991Z,2.11
2022-11-23T12:07:33.694Z,2.19
2022-11-23T12:10:06.616Z,2.21
2022-11-23T12:12:37.415Z,2.21
2022-11-23T12:15:48.377Z,2.19
2022-11-23T12:18:15.951Z,2.19
2022-11-23T12:21:03.108Z,2.16
2022-11-23T12:23:32.124Z,2.15
2022-11-23T12:26:10.492Z,2.15
2022-11-23T12:28:58.482Z,2.16
2022-11-23T12:31:40.201Z,2.10
2022-11-23T12:34:15.629Z,2.10
2022-11-23T12:37:03.479Z,2.08
2022-11-23T12:40:00.590Z,2.10
2022-11-23T12:42:42.669Z,2.09
2022-11-23T12:45:15.621Z,2.09
2022-11-23T12:48:08.709Z,2.08
2022-11-23T12:50:43.575Z,2.08
2022-11-23T12:53:31.487Z,2.06
2022-11-23T12:56:16.691Z,2.02
2022-11-23T12:58:47.787Z,2.02
2022-11-23T13:01:16.806Z,2.05
2022-11-23T13:04:05.671Z,2.08
2022-11-23T13:07:05.529Z,2.02
2022-11-23T13:09:52.534Z,1.98
2022-11-23T13:12:24.790Z,2.01
2022-11-23T13:15:05.982Z,2.00
2022-11-23T13:17:41.535Z,1.99
2022-11-23T13:20:26.133Z,2.01
2022-11-23T13:22:56.935Z,1.99
2022-11-23T13:25:30.324Z,2.00
2022-11-23T13:28:04.406Z,2.01
2022-11-23T13:33:35.783Z,1.91
2022-11-23T13:36:13.899Z,1.90
2022-11-23T13:38:47.989Z,1.84
2022-11-23T13:41:35.848Z,1.83
2022-11-23T13:44:28.634Z,1.89
2022-11-23T13:46:57.812Z,1.94
2022-11-23T13:49:47.418Z,1.97
2022-11-23T13:52:16.867Z,1.98
2022-11-23T13:58:20.967Z,1.89
2022-11-23T14:00:54.797Z,1.84
2022-11-23T14:03:43.205Z,1.84
2022-11-23T14:06:16.295Z,1.80
2022-11-23T14:09:22.709Z,1.77
2022-11-23T14:12:10.625Z,1.79
2022-11-23T14:14:58.602Z,1.77
2022-11-23T14:17:46.263Z,1.74
2022-11-23T14:23:25.684Z,1.74
2022-11-23T14:26:12.886Z,1.68
2022-11-23T14:28:44.427Z,1.67
2022-11-23T14:31:26.517Z,1.65
2022-11-23T14:34:11.144Z,1.65
2022-11-23T14:36:44.994Z,1.64
2022-11-23T14:39:34.149Z,1.61
2022-11-23T14:42:05.651Z,1.60
2022-11-23T14:44:38.627Z,1.60
2022-11-23T14:47:09.493Z,1.63
2022-11-23T14:49:48.732Z,1.65
2022-11-23T14:52:20.699Z,1.68
2022-11-23T14:54:51.120Z,1.73
2022-11-23T14:57:23.274Z,1.76
2022-11-23T14:59:56.804Z,1.77
2022-11-23T15:02:35.533Z,1.78
2022-11-23T15:05:04.732Z,1.75
2022-11-23T15:08:00.668Z,1.70
2022-11-23T15:10:38.466Z,1.64
2022-11-23T15:17:28.891Z,1.67
2022-11-23T15:20:12.835Z,1.68
2022-11-23T15:22:53.208Z,1.65
2022-11-23T15:25:23.504Z,1.64
2022-11-23T15:28:28.882Z,1.63
2022-11-23T15:31:00.516Z,1.62
2022-11-23T15:33:29.582Z,1.59
2022-11-23T15:35:58.239Z,1.55
2022-11-23T15:38:27.096Z,1.49
2022-11-23T15:41:05.522Z,1.49
2022-11-23T15:43:34.701Z,1.46
2022-11-23T15:46:06.264Z,1.46
2022-11-23T15:48:37.241Z,1.46
2022-11-23T15:51:09.339Z,1.44
2022-11-23T15:53:49.815Z,1.41
2022-11-23T15:56:28.559Z,1.38
2022-11-23T15:58:59.400Z,1.43
2022-11-23T16:01:28.877Z,1.47
2022-11-23T16:04:16.783Z,1.48
2022-11-23T16:13:34.034Z,1.58
2022-11-23T16:16:22.096Z,1.54
2022-11-23T16:22:07.544Z,1.46
2022-11-23T16:24:55.943Z,1.49
2022-11-23T16:27:36.847Z,1.47
2022-11-23T16:30:06.646Z,1.43
2022-11-23T16:33:00.659Z,1.42
2022-11-23T16:35:38.545Z,1.37
2022-11-23T16:38:08.147Z,1.37
2022-11-23T16:40:37.903Z,1.38
2022-11-23T16:43:13.409Z,1.43
2022-11-23T16:45:57.420Z,1.46
2022-11-23T16:48:35.212Z,1.47
2022-11-23T16:51:04.664Z,1.40
2022-11-23T16:53:53.446Z,1.44
2022-11-23T16:56:24.691Z,1.44
2022-11-23T16:58:55.158Z,1.39
2022-11-23T17:01:25.632Z,1.35
2022-11-23T17:03:54.858Z,1.37
2022-11-23T17:06:24.106Z,1.41
2022-11-23T17:09:00.493Z,1.42
2022-11-23T17:11:38.035Z,1.44
2022-11-23T17:14:07.697Z,1.47
2022-11-23T17:16:37.165Z,1.45
2022-11-23T17:19:14.637Z,1.44
2022-11-23T17:21:44.660Z,1.44
2022-11-23T17:24:14.814Z,1.44
2022-11-23T17:26:49.225Z,1.38
2022-11-23T17:29:20.904Z,1.38
2022-11-23T17:31:51.548Z,1.40
2022-11-23T17:34:20.316Z,1.41
2022-11-23T17:36:51.734Z,1.37
2022-11-23T17:39:23.629Z,1.33
2022-11-23T17:42:00.052Z,1.37
2022-11-23T17:44:32.892Z,1.45
2022-11-23T17:47:03.239Z,1.49
2022-11-23T17:49:33.032Z,1.54
2022-11-23T17:52:02.444Z,1.53
2022-11-23T17:54:31.645Z,1.49
2022-11-23T17:57:00.773Z,1.46
2022-11-23T17:59:30.588Z,1.43
2022-11-23T18:01:59.913Z,1.40
2022-11-23T18:04:29.244Z,1.35
2022-11-23T18:06:58.950Z,1.28
2022-11-23T18:09:28.050Z,1.27
2022-11-23T18:11:57.086Z,1.30
2022-11-23T18:14:29.770Z,1.33
2022-11-23T18:16:58.821Z,1.29
2022-11-23T18:19:28.258Z,1.27
2022-11-23T18:21:58.100Z,1.30
2022-11-23T18:24:27.148Z,1.27
2022-11-23T18:26:55.954Z,1.29
2022-11-23T18:29:26.103Z,1.30
2022-11-23T18:31:55.306Z,1.30
2022-11-23T18:34:24.124Z,1.31
2022-11-23T18:36:53.313Z,1.33
2022-11-23T18:39:23.206Z,1.32
2022-11-23T18:41:51.812Z,1.24
2022-11-23T18:44:20.650Z,1.18
2022-11-23T18:46:49.612Z,1.12
2022-11-23T18:49:18.332Z,1.07
2022-11-23T18:51:48.238Z,1.07
2022-11-23T18:54:18.882Z,1.07
2022-11-23T18:56:49.911Z,1.06
2022-11-23T19:02:12.365Z,0.97
2022-11-23T19:04:41.583Z,0.94
2022-11-23T19:07:11.201Z,0.90
2022-11-23T19:09:40.614Z,0.85
2022-11-23T19:12:10.581Z,0.77
2022-11-23T19:14:40.634Z,0.73
2022-11-23T19:17:10.142Z,0.71
2022-11-23T19:19:39.983Z,0.70
2022-11-23T19:22:09.575Z,0.72
2022-11-23T19:24:38.564Z,0.71
2022-11-23T19:27:07.355Z,0.69
2022-11-23T19:29:38.311Z,0.69
2022-11-23T19:32:09.617Z,0.69
2022-11-23T19:34:40.388Z,0.64
2022-11-23T19:37:11.908Z,0.63
2022-11-23T19:39:43.475Z,0.61
2022-11-23T19:42:14.994Z,0.65
2022-11-23T19:44:46.279Z,0.67
2022-11-23T19:47:32.410Z,0.68
2022-11-23T19:50:02.461Z,0.67
2022-11-23T19:52:55.564Z,0.68
2022-11-23T19:55:24.475Z,0.74
2022-11-23T19:57:55.917Z,0.72
2022-11-23T20:00:26.876Z,0.70
2022-11-23T20:03:00.945Z,0.69
2022-11-23T20:05:33.274Z,0.69
2022-11-23T20:08:04.623Z,0.67
2022-11-23T20:10:35.671Z,0.68
2022-11-23T20:13:07.222Z,0.67
2022-11-23T20:15:37.858Z,0.63
2022-11-23T20:18:09.133Z,0.64
2022-11-23T20:20:44.434Z,0.66
2022-11-23T20:23:16.753Z,0.67
2022-11-23T20:25:48.681Z,0.65
2022-11-23T20:28:20.661Z,0.61
2022-11-23T20:30:54.606Z,0.60
2022-11-23T20:33:26.396Z,0.66
2022-11-23T20:36:08.863Z,0.72
2022-11-23T20:38:40.194Z,0.77
2022-11-23T20:41:14.580Z,0.81
2022-11-23T20:43:46.933Z,0.81
2022-11-23T20:46:45.663Z,0.79
2022-11-23T20:49:12.394Z,0.81
2022-11-23T20:51:43.518Z,0.79
2022-11-23T20:54:15.121Z,0.75
2022-11-23T20:56:45.905Z,0.75
2022-11-23T20:59:17.574Z,0.71
2022-11-23T21:01:49.438Z,0.72
2022-11-23T21:04:20.626Z,0.75
2022-11-23T21:06:52.127Z,0.73
2022-11-23T21:09:23.572Z,0.66
2022-11-23T21:12:13.736Z,0.61
2022-11-23T21:14:45.919Z,0.54
2022-11-23T21:17:18.419Z,0.51
2022-11-23T21:19:49.801Z,0.47
2022-11-23T21:22:19.666Z,0.48
2022-11-23T21:24:48.553Z,0.53
2022-11-23T21:27:17.401Z,0.55
2022-11-23T21:29:47.047Z,0.50
2022-11-23T21:32:16.079Z,0.46
2022-11-23T21:34:45.010Z,0.42
2022-11-23T21:37:14.411Z,0.36
2022-11-23T21:39:47.945Z,0.39
2022-11-23T21:42:20.619Z,0.44
2022-11-23T21:44:49.998Z,0.43
2022-11-23T21:47:19.279Z,0.41
2022-11-23T21:49:47.877Z,0.43
2022-11-23T21:52:16.257Z,0.40
2022-11-23T21:54:48.925Z,0.39
2022-11-23T21:57:18.143Z,0.37
2022-11-23T21:59:47.178Z,0.35
2022-11-23T22:05:59.084Z,0.39
2022-11-23T22:08:29.489Z,0.37
2022-11-23T22:10:59.518Z,0.36
2022-11-23T22:13:33.992Z,0.35
2022-11-23T22:16:16.459Z,0.34
2022-11-23T22:18:46.275Z,0.35
2022-11-23T22:21:15.908Z,0.40
2022-11-23T22:23:45.247Z,0.50
2022-11-23T22:26:15.751Z,0.51
2022-11-23T22:28:46.658Z,0.47
2022-11-23T22:31:17.143Z,0.46
2022-11-23T22:33:47.340Z,0.42
2022-11-23T22:36:23.557Z,0.37
2022-11-23T22:39:01.247Z,0.36
2022-11-23T22:41:37.908Z,0.38
2022-11-23T22:44:08.895Z,0.43
2022-11-23T22:46:59.681Z,0.42
2022-11-23T22:49:34.652Z,0.44
2022-11-23T22:52:03.908Z,0.47
2022-11-23T22:54:33.843Z,0.48
2022-11-23T22:57:03.647Z,0.47
2022-11-23T22:59:32.867Z,0.44
2022-11-23T23:02:02.256Z,0.48
2022-11-23T23:04:32.024Z,0.52
2022-11-23T23:07:01.880Z,0.55
2022-11-23T23:09:31.133Z,0.62
2022-11-23T23:12:01.274Z,0.62
2022-11-23T23:14:30.675Z,0.57
2022-11-23T23:17:00.335Z,0.50
2022-11-23T23:19:29.968Z,0.49
2022-11-23T23:21:59.544Z,0.47
2022-11-23T23:24:28.765Z,0.44
2022-11-23T23:26:58.151Z,0.43
2022-11-23T23:29:27.334Z,0.46
2022-11-23T23:31:56.856Z,0.50
2022-11-23T23:34:26.007Z,0.47
2022-11-23T23:36:56.281Z,0.42
2022-11-23T23:39:25.204Z,0.43
2022-11-23T23:41:54.580Z,0.41
2022-11-23T23:44:23.884Z,0.41
2022-11-23T23:46:53.666Z,0.46
2022-11-23T23:49:25.144Z,0.50
2022-11-23T23:51:55.037Z,0.55
2022-11-23T23:54:24.499Z,0.60
2022-11-23T23:56:53.556Z,0.60
2022-11-23T23:59:24.601Z,0.55
